createdAt,value
2022-09-02T00:01:22.453Z,99.90
2022-09-02T00:03:49.491Z,99.90
2022-09-02T00:06:17.153Z,99.90
2022-09-02T00:08:44.715Z,99.90
2022-09-02T00:11:16.373Z,99.90
2022-09-02T00:13:43.859Z,99.90
2022-09-02T00:16:11.536Z,99.90
2022-09-02T00:18:40.329Z,99.90
2022-09-02T00:21:14.515Z,99.90
2022-09-02T00:23:43.291Z,99.90
2022-09-02T00:26:10.482Z,99.90
2022-09-02T00:28:37.481Z,99.90
2022-09-02T00:31:05.125Z,99.90
2022-09-02T00:33:32.261Z,99.90
2022-09-02T00:36:01.249Z,99.90
2022-09-02T00:38:29.483Z,99.90
2022-09-02T00:40:56.491Z,99.90
2022-09-02T00:43:40.474Z,99.90
2022-09-02T00:46:07.748Z,99.90
2022-09-02T00:48:37.313Z,99.90
2022-09-02T00:51:04.358Z,99.90
2022-09-02T00:53:34.109Z,99.90
2022-09-02T00:56:02.426Z,99.90
2022-09-02T00:58:35.025Z,99.90
2022-09-02T01:01:01.956Z,99.90
2022-09-02T01:03:31.523Z,99.90
2022-09-02T01:05:59.558Z,99.90
2022-09-02T01:08:28.950Z,99.90
2022-09-02T01:10:57.005Z,99.90
2022-09-02T01:13:27.083Z,99.90
2022-09-02T01:16:02.813Z,99.90
2022-09-02T01:18:31.096Z,99.90
2022-09-02T01:21:00.474Z,99.90
2022-09-02T01:23:34.799Z,99.90
2022-09-02T01:26:02.559Z,99.90
2022-09-02T01:28:29.430Z,99.90
2022-09-02T01:30:56.700Z,99.90
2022-09-02T01:33:25.366Z,99.90
2022-09-02T01:35:53.578Z,99.90
2022-09-02T01:38:21.758Z,99.90
2022-09-02T01:40:49.329Z,99.90
2022-09-02T01:43:19.955Z,99.90
2022-09-02T01:45:50.720Z,99.90
2022-09-02T01:48:21.786Z,99.90
2022-09-02T01:50:54.269Z,99.90
2022-09-02T01:53:21.199Z,99.90
2022-09-02T01:55:48.367Z,99.90
2022-09-02T01:58:15.180Z,99.90
2022-09-02T02:00:42.299Z,99.90
2022-09-02T02:03:09.212Z,99.90
2022-09-02T02:05:37.211Z,99.90
2022-09-02T02:08:07.773Z,99.90
2022-09-02T02:10:35.370Z,99.90
2022-09-02T02:13:02.998Z,99.90
2022-09-02T02:17:58.706Z,99.90
2022-09-02T02:20:27.125Z,99.90
2022-09-02T02:22:54.148Z,99.90
2022-09-02T02:25:21.107Z,99.90
2022-09-02T02:27:51.452Z,99.90
2022-09-02T02:30:21.189Z,99.90
2022-09-02T02:32:48.443Z,99.90
2022-09-02T02:35:19.306Z,99.90
2022-09-02T02:37:50.234Z,99.90
2022-09-02T02:40:20.411Z,99.90
2022-09-02T02:42:49.781Z,99.90
2022-09-02T02:45:16.674Z,99.90
2022-09-02T02:47:47.128Z,99.90
2022-09-02T02:50:17.555Z,99.90
2022-09-02T02:52:46.597Z,99.90
2022-09-02T02:55:14.993Z,99.90
2022-09-02T02:57:43.254Z,99.90
2022-09-02T03:00:18.264Z,99.90
2022-09-02T03:02:47.879Z,99.90
2022-09-02T03:05:15.718Z,99.90
2022-09-02T03:07:43.067Z,99.90
2022-09-02T03:10:13.089Z,99.90
2022-09-02T03:12:41.892Z,99.90
2022-09-02T03:15:11.299Z,99.90
2022-09-02T03:17:39.878Z,99.90
2022-09-02T03:20:07.986Z,99.90
2022-09-02T03:22:39.136Z,99.90
2022-09-02T03:25:10.215Z,99.90
2022-09-02T03:27:40.121Z,99.90
2022-09-02T03:30:09.534Z,99.90
2022-09-02T03:32:37.384Z,99.90
2022-09-02T03:35:07.775Z,99.90
2022-09-02T03:37:37.134Z,99.90
2022-09-02T03:40:10.018Z,99.90
2022-09-02T03:42:38.510Z,99.90
2022-09-02T03:45:09.220Z,99.90
2022-09-02T03:47:36.873Z,99.90
2022-09-02T03:50:04.792Z,99.90
2022-09-02T03:52:31.637Z,99.90
2022-09-02T03:54:58.669Z,99.90
2022-09-02T03:57:27.258Z,99.90
2022-09-02T03:59:54.414Z,99.90
2022-09-02T04:02:21.520Z,99.90
2022-09-02T04:04:48.494Z,99.90
2022-09-02T04:07:15.827Z,99.90
2022-09-02T04:09:46.599Z,99.90
2022-09-02T04:12:13.907Z,99.90
2022-09-02T04:14:42.106Z,99.90
2022-09-02T04:17:10.273Z,99.90
2022-09-02T04:19:37.679Z,99.90
2022-09-02T04:22:05.231Z,99.90
2022-09-02T04:24:32.538Z,99.90
2022-09-02T04:27:03.994Z,99.90
2022-09-02T04:29:33.866Z,99.90
2022-09-02T04:32:01.014Z,99.90
2022-09-02T04:34:28.076Z,99.90
2022-09-02T04:36:56.487Z,99.90
2022-09-02T04:39:23.749Z,99.90
2022-09-02T04:41:53.880Z,99.90
2022-09-02T04:44:21.543Z,99.90
2022-09-02T04:46:48.667Z,99.90
2022-09-02T04:49:20.275Z,99.90
2022-09-02T04:51:50.681Z,99.90
2022-09-02T04:54:17.866Z,99.90
2022-09-02T04:56:48.107Z,99.90
2022-09-02T04:59:15.520Z,99.90
2022-09-02T05:01:51.124Z,99.90
2022-09-02T05:04:24.086Z,99.90
2022-09-02T05:06:51.562Z,99.90
2022-09-02T05:09:19.801Z,99.90
2022-09-02T05:11:52.278Z,99.90
2022-09-02T05:14:24.160Z,99.90
2022-09-02T05:16:55.038Z,99.90
2022-09-02T05:19:23.810Z,99.90
2022-09-02T05:21:57.544Z,99.90
2022-09-02T05:24:29.834Z,99.90
2022-09-02T05:27:00.031Z,99.90
2022-09-02T05:29:28.719Z,99.90
2022-09-02T05:31:57.583Z,99.90
2022-09-02T05:34:26.105Z,99.90
2022-09-02T05:36:57.067Z,99.90
2022-09-02T05:39:25.903Z,99.90
2022-09-02T05:41:53.806Z,99.90
2022-09-02T05:44:20.931Z,99.90
2022-09-02T05:46:49.499Z,99.90
2022-09-02T05:49:17.995Z,99.90
2022-09-02T05:51:53.136Z,99.90
2022-09-02T05:54:30.849Z,99.90
2022-09-02T05:57:04.717Z,99.90
2022-09-02T05:59:36.932Z,99.90
2022-09-02T06:02:04.332Z,99.90
2022-09-02T06:04:32.160Z,99.90
2022-09-02T06:06:59.970Z,99.90
2022-09-02T06:09:27.277Z,99.90
2022-09-02T06:11:55.110Z,99.90
2022-09-02T06:14:27.366Z,99.90
2022-09-02T06:16:57.573Z,99.90
2022-09-02T06:19:32.765Z,99.90
2022-09-02T06:22:03.881Z,99.90
2022-09-02T06:24:33.838Z,99.90
2022-09-02T06:27:07.403Z,99.90
2022-09-02T06:29:37.952Z,99.90
2022-09-02T06:32:07.009Z,99.90
2022-09-02T06:34:35.282Z,99.90
2022-09-02T06:37:03.421Z,99.90
2022-09-02T06:39:32.348Z,99.90
2022-09-02T06:42:00.042Z,99.90
2022-09-02T06:44:29.870Z,99.90
2022-09-02T06:46:59.923Z,99.90
2022-09-02T06:49:28.810Z,99.90
2022-09-02T06:51:59.801Z,99.90
2022-09-02T06:54:31.519Z,99.90
2022-09-02T06:57:07.754Z,99.90
2022-09-02T06:59:37.860Z,99.90
2022-09-02T07:02:05.363Z,99.90
2022-09-02T07:04:53.212Z,99.90
2022-09-02T07:07:23.127Z,99.90
2022-09-02T07:10:14.445Z,99.90
2022-09-02T07:12:45.335Z,99.90
2022-09-02T07:15:15.957Z,99.90
2022-09-02T07:17:44.225Z,99.90
2022-09-02T07:20:16.628Z,99.90
2022-09-02T07:23:02.966Z,99.90
2022-09-02T07:25:32.374Z,99.90
2022-09-02T07:27:59.757Z,99.90
2022-09-02T07:30:31.657Z,99.90
2022-09-02T07:33:05.646Z,99.90
2022-09-02T07:35:33.760Z,99.90
2022-09-02T07:38:01.475Z,99.90
2022-09-02T07:40:28.458Z,99.90
2022-09-02T07:45:24.255Z,99.90
2022-09-02T07:47:51.170Z,99.90
2022-09-02T07:50:21.709Z,99.90
2022-09-02T07:52:58.202Z,99.90
2022-09-02T07:55:30.991Z,99.90
2022-09-02T07:57:58.381Z,99.90
2022-09-02T08:00:27.707Z,99.90
2022-09-02T08:02:58.113Z,99.90
2022-09-02T08:05:32.392Z,99.90
2022-09-02T08:08:00.472Z,99.90
2022-09-02T08:10:29.619Z,99.90
2022-09-02T08:12:57.989Z,99.90
2022-09-02T08:15:28.006Z,99.90
2022-09-02T08:17:56.695Z,99.90
2022-09-02T08:20:24.508Z,99.90
2022-09-02T08:23:00.906Z,99.90
2022-09-02T08:25:39.373Z,99.90
2022-09-02T08:28:06.773Z,99.90
2022-09-02T08:30:34.094Z,99.90
2022-09-02T08:33:01.196Z,99.90
2022-09-02T08:35:28.188Z,99.90
2022-09-02T08:37:55.041Z,99.90
2022-09-02T08:40:24.942Z,99.90
2022-09-02T08:42:54.698Z,99.90
2022-09-02T08:45:38.851Z,99.90
2022-09-02T08:48:21.401Z,99.90
2022-09-02T08:50:52.447Z,99.90
2022-09-02T08:53:37.001Z,99.90
2022-09-02T08:56:07.379Z,99.90
2022-09-02T08:58:43.706Z,99.90
2022-09-02T09:01:15.292Z,99.90
2022-09-02T09:03:58.105Z,99.90
2022-09-02T09:06:29.663Z,99.90
2022-09-02T09:09:04.963Z,99.90
2022-09-02T09:11:50.006Z,99.90
2022-09-02T09:14:37.477Z,99.90
2022-09-02T09:17:28.430Z,99.90
2022-09-02T09:20:00.591Z,99.90
2022-09-02T09:22:37.295Z,99.90
2022-09-02T09:25:11.660Z,99.90
2022-09-02T09:27:41.133Z,99.90
2022-09-02T09:30:14.463Z,99.90
2022-09-02T09:32:52.438Z,99.90
2022-09-02T09:35:19.734Z,99.90
2022-09-02T09:37:51.351Z,99.90
2022-09-02T09:40:26.325Z,99.90
2022-09-02T09:43:05.926Z,99.90
2022-09-02T09:45:50.065Z,99.90
2022-09-02T09:48:19.026Z,99.90
2022-09-02T09:50:47.761Z,99.90
2022-09-02T09:53:25.778Z,99.90
2022-09-02T09:56:15.706Z,99.90
2022-09-02T09:58:44.211Z,99.90
2022-09-02T10:01:20.308Z,99.90
2022-09-02T10:03:55.483Z,99.90
2022-09-02T10:06:34.869Z,99.90
2022-09-02T10:09:06.886Z,99.10
2022-09-02T10:11:36.697Z,99.90
2022-09-02T10:14:10.207Z,98.40
2022-09-02T10:16:53.177Z,98.40
2022-09-02T10:19:38.000Z,96.00
2022-09-02T10:22:58.450Z,96.70
2022-09-02T10:25:37.013Z,98.10
2022-09-02T10:28:41.075Z,97.00
2022-09-02T10:31:36.468Z,96.60
2022-09-02T10:34:03.615Z,96.70
2022-09-02T10:36:54.608Z,98.10
2022-09-02T10:39:37.188Z,98.00
2022-09-02T10:42:31.285Z,98.20
2022-09-02T10:45:32.131Z,96.60
2022-09-02T10:48:44.898Z,96.90
2022-09-02T10:51:20.222Z,94.10
2022-09-02T10:53:59.874Z,94.60
2022-09-02T10:56:42.672Z,94.90
2022-09-02T10:59:17.734Z,94.90
2022-09-02T11:01:58.498Z,96.30
2022-09-02T11:04:34.108Z,96.40
2022-09-02T11:07:03.763Z,95.00
2022-09-02T11:09:46.822Z,95.90
2022-09-02T11:12:20.124Z,96.40
2022-09-02T11:15:17.607Z,95.80
2022-09-02T11:17:54.460Z,95.20
2022-09-02T11:20:48.805Z,93.80
2022-09-02T11:23:50.010Z,93.70
2022-09-02T11:26:24.503Z,93.60
2022-09-02T11:29:14.077Z,92.90
2022-09-02T11:31:47.974Z,92.30
2022-09-02T11:34:42.389Z,92.50
2022-09-02T11:37:17.957Z,93.40
2022-09-02T11:40:34.347Z,93.30
2022-09-02T11:43:39.400Z,91.90
2022-09-02T11:46:46.481Z,90.70
2022-09-02T11:49:26.701Z,91.20
2022-09-02T11:52:02.170Z,91.80
2022-09-02T11:54:38.238Z,91.10
2022-09-02T11:57:07.231Z,90.70
2022-09-02T11:59:52.420Z,91.10
2022-09-02T12:02:48.097Z,91.60
2022-09-02T12:05:30.493Z,90.90
2022-09-02T12:08:00.084Z,90.40
2022-09-02T12:10:45.572Z,91.40
2022-09-02T12:13:46.076Z,90.80
2022-09-02T12:16:19.421Z,91.30
2022-09-02T12:19:10.936Z,91.80
2022-09-02T12:22:15.885Z,91.10
2022-09-02T12:25:07.233Z,92.10
2022-09-02T12:27:39.487Z,92.20
2022-09-02T12:30:13.109Z,90.00
2022-09-02T12:32:52.338Z,88.80
2022-09-02T12:35:57.940Z,88.70
2022-09-02T12:38:31.067Z,86.80
2022-09-02T12:41:16.038Z,86.90
2022-09-02T12:43:47.194Z,87.70
2022-09-02T12:46:17.600Z,85.90
2022-09-02T12:48:57.334Z,86.00
2022-09-02T12:51:55.269Z,85.70
2022-09-02T12:54:31.378Z,86.90
2022-09-02T12:56:58.539Z,87.30
2022-09-02T12:59:31.307Z,86.30
2022-09-02T13:02:10.741Z,85.50
2022-09-02T13:04:49.386Z,87.70
2022-09-02T13:08:08.798Z,87.10
2022-09-02T13:11:24.712Z,88.20
2022-09-02T13:14:18.315Z,86.60
2022-09-02T13:17:36.358Z,85.70
2022-09-02T13:20:27.948Z,86.70
2022-09-02T13:23:13.885Z,85.80
2022-09-02T13:26:06.563Z,86.60
2022-09-02T13:28:54.810Z,85.80
2022-09-02T13:31:25.558Z,84.80
2022-09-02T13:34:08.248Z,85.00
2022-09-02T13:36:37.934Z,86.20
2022-09-02T13:39:31.099Z,85.40
2022-09-02T13:41:57.969Z,84.90
2022-09-02T13:44:31.924Z,86.50
2022-09-02T13:47:17.768Z,86.50
2022-09-02T13:49:47.598Z,86.70
2022-09-02T13:52:51.160Z,86.40
2022-09-02T13:55:14.017Z,86.80
2022-09-02T13:57:49.840Z,87.40
2022-09-02T14:00:35.254Z,87.20
2022-09-02T14:03:05.283Z,85.40
2022-09-02T14:05:36.031Z,85.50
2022-09-02T14:08:07.030Z,86.80
2022-09-02T14:10:37.287Z,86.70
2022-09-02T14:13:05.119Z,85.90
2022-09-02T14:15:34.098Z,86.50
2022-09-02T14:18:18.125Z,87.50
2022-09-02T14:21:01.173Z,88.70
2022-09-02T14:23:33.377Z,89.80
2022-09-02T14:26:02.798Z,90.00
2022-09-02T14:28:32.990Z,90.70
2022-09-02T14:31:05.724Z,90.20
2022-09-02T14:33:45.739Z,89.90
2022-09-02T14:36:15.378Z,90.20
2022-09-02T14:38:45.191Z,90.20
2022-09-02T14:41:24.665Z,90.50
2022-09-02T14:44:08.199Z,90.80
2022-09-02T14:46:47.026Z,90.40
2022-09-02T14:49:22.615Z,90.80
2022-09-02T14:51:52.373Z,90.80
2022-09-02T14:54:45.484Z,90.60
2022-09-02T14:57:22.083Z,90.10
2022-09-02T14:59:50.113Z,89.80
2022-09-02T15:02:32.310Z,89.80
2022-09-02T15:05:03.774Z,89.30
2022-09-02T15:07:30.933Z,90.20
2022-09-02T15:09:58.038Z,90.10
2022-09-02T15:12:29.797Z,90.10
2022-09-02T15:14:57.586Z,90.50
2022-09-02T15:17:25.757Z,90.70
2022-09-02T15:19:52.660Z,91.00
2022-09-02T15:22:22.986Z,91.40
2022-09-02T15:24:50.643Z,91.20
2022-09-02T15:27:21.439Z,91.60
2022-09-02T15:29:49.522Z,91.80
2022-09-02T15:32:16.863Z,91.20
2022-09-02T15:34:43.799Z,92.00
2022-09-02T15:37:13.100Z,91.70
2022-09-02T15:39:40.794Z,91.60
2022-09-02T15:42:07.849Z,91.90
2022-09-02T15:44:34.657Z,92.10
2022-09-02T15:47:01.899Z,92.40
2022-09-02T15:49:28.998Z,92.00
2022-09-02T15:51:55.992Z,92.00
2022-09-02T15:54:24.179Z,92.60
2022-09-02T15:56:55.880Z,92.60
2022-09-02T15:59:25.037Z,92.40
2022-09-02T16:01:58.870Z,92.10
2022-09-02T16:04:27.530Z,92.30
2022-09-02T16:06:54.745Z,92.10
2022-09-02T16:09:22.121Z,92.70
2022-09-02T16:11:53.870Z,92.40
2022-09-02T16:14:22.122Z,92.40
2022-09-02T16:16:50.879Z,92.70
2022-09-02T16:19:22.358Z,92.30
2022-09-02T16:21:52.569Z,92.30
2022-09-02T16:24:21.479Z,91.90
2022-09-02T16:26:51.173Z,91.70
2022-09-02T16:29:19.569Z,91.50
2022-09-02T16:32:02.217Z,91.00
2022-09-02T16:34:36.397Z,90.50
2022-09-02T16:37:03.276Z,90.00
2022-09-02T16:39:30.725Z,89.60
2022-09-02T16:41:58.278Z,90.10
2022-09-02T16:44:26.329Z,90.20
2022-09-02T16:46:54.288Z,90.40
2022-09-02T16:49:22.455Z,90.30
2022-09-02T16:51:54.012Z,90.40
2022-09-02T16:54:31.360Z,90.60
2022-09-02T16:57:01.030Z,90.60
2022-09-02T16:59:28.091Z,91.10
2022-09-02T17:01:55.375Z,91.50
2022-09-02T17:04:22.446Z,92.00
2022-09-02T17:06:49.554Z,92.10
2022-09-02T17:09:16.900Z,92.30
2022-09-02T17:11:45.517Z,92.40
2022-09-02T17:14:17.798Z,92.70
2022-09-02T17:16:47.221Z,93.10
2022-09-02T17:19:20.934Z,93.20
2022-09-02T17:21:53.044Z,93.20
2022-09-02T17:24:22.533Z,93.30
2022-09-02T17:26:51.289Z,93.50
2022-09-02T17:29:47.661Z,93.70
2022-09-02T17:32:07.550Z,93.90
2022-09-02T17:34:34.522Z,94.00
2022-09-02T17:37:01.379Z,94.00
2022-09-02T17:39:36.962Z,94.30
2022-09-02T17:42:06.647Z,94.40
2022-09-02T17:44:36.324Z,94.70
2022-09-02T17:47:06.387Z,94.70
2022-09-02T17:49:36.456Z,94.80
2022-09-02T17:52:08.009Z,94.80
2022-09-02T17:54:36.261Z,95.00
2022-09-02T17:57:08.779Z,95.20
2022-09-02T17:59:44.926Z,95.50
2022-09-02T18:02:37.503Z,95.50
2022-09-02T18:05:16.473Z,95.30
2022-09-02T18:08:02.788Z,95.50
2022-09-02T18:10:36.716Z,95.90
2022-09-02T18:13:09.992Z,95.80
2022-09-02T18:15:58.848Z,96.10
2022-09-02T18:18:28.237Z,96.10
2022-09-02T18:21:17.285Z,96.30
2022-09-02T18:24:05.384Z,96.30
2022-09-02T18:27:07.242Z,96.60
2022-09-02T18:30:04.036Z,96.60
2022-09-02T18:33:07.805Z,96.30
2022-09-02T18:36:02.016Z,96.70
2022-09-02T18:39:05.864Z,97.10
2022-09-02T18:41:46.779Z,97.20
2022-09-02T18:44:19.214Z,97.20
2022-09-02T18:46:52.788Z,97.40
2022-09-02T18:49:22.559Z,97.50
2022-09-02T18:51:55.560Z,98.00
2022-09-02T18:54:28.816Z,97.70
2022-09-02T18:57:01.325Z,97.70
2022-09-02T18:59:43.115Z,98.10
2022-09-02T19:02:31.150Z,98.30
2022-09-02T19:04:59.401Z,98.60
2022-09-02T19:07:47.726Z,98.70
2022-09-02T19:10:17.544Z,98.60
2022-09-02T19:12:45.541Z,98.70
2022-09-02T19:15:14.537Z,99.10
2022-09-02T19:17:44.436Z,99.40
2022-09-02T19:20:11.700Z,99.50
2022-09-02T19:22:43.107Z,99.80
2022-09-02T19:25:19.737Z,99.80
2022-09-02T19:27:48.429Z,99.90
2022-09-02T19:30:24.849Z,99.90
2022-09-02T19:32:54.451Z,99.90
2022-09-02T19:35:25.126Z,99.90
2022-09-02T19:37:54.530Z,99.90
2022-09-02T19:40:28.597Z,99.90
2022-09-02T19:42:55.744Z,99.90
2022-09-02T19:45:23.329Z,99.90
2022-09-02T19:48:06.668Z,99.90
2022-09-02T19:50:38.131Z,99.90
2022-09-02T19:53:05.972Z,99.90
2022-09-02T19:55:33.866Z,99.90
2022-09-02T19:58:01.159Z,99.90
2022-09-02T20:00:28.133Z,99.90
2022-09-02T20:02:55.640Z,99.90
2022-09-02T20:05:25.306Z,99.90
2022-09-02T20:07:53.867Z,99.90
2022-09-02T20:10:27.774Z,99.90
2022-09-02T20:12:55.528Z,99.90
2022-09-02T20:15:22.334Z,99.90
2022-09-02T20:17:49.794Z,99.90
2022-09-02T20:20:20.390Z,99.90
2022-09-02T20:22:48.764Z,99.90
2022-09-02T20:25:15.705Z,99.90
2022-09-02T20:28:24.968Z,99.90
2022-09-02T20:31:07.241Z,99.90
2022-09-02T20:33:45.668Z,99.90
2022-09-02T20:36:41.055Z,99.90
2022-09-02T20:39:19.834Z,99.90
2022-09-02T20:42:14.614Z,99.90
2022-09-02T20:44:54.644Z,99.90
2022-09-02T20:47:47.786Z,99.90
2022-09-02T20:50:29.281Z,99.90
2022-09-02T20:53:24.132Z,99.90
2022-09-02T20:56:01.812Z,99.90
2022-09-02T20:58:39.732Z,99.90
2022-09-02T21:01:17.562Z,99.90
2022-09-02T21:04:07.199Z,99.90
2022-09-02T21:06:39.044Z,99.90
2022-09-02T21:09:43.846Z,99.90
2022-09-02T21:12:32.403Z,99.90
2022-09-02T21:15:07.472Z,99.90
2022-09-02T21:18:05.437Z,99.90
2022-09-02T21:20:57.940Z,99.90
2022-09-02T21:23:31.897Z,99.90
2022-09-02T21:26:05.481Z,99.90
2022-09-02T21:28:44.015Z,99.90
2022-09-02T21:31:38.513Z,99.90
2022-09-02T21:34:10.727Z,99.90
2022-09-02T21:36:38.703Z,99.90
2022-09-02T21:39:15.491Z,99.90
2022-09-02T21:41:51.074Z,99.90
2022-09-02T21:44:48.838Z,99.90
2022-09-02T21:47:15.670Z,99.90
2022-09-02T21:50:05.113Z,99.90
2022-09-02T21:52:52.968Z,99.90
2022-09-02T21:55:38.074Z,99.90
2022-09-02T21:58:30.446Z,99.90
2022-09-02T22:01:26.916Z,99.90
2022-09-02T22:04:16.828Z,99.90
2022-09-02T22:06:48.175Z,99.90
2022-09-02T22:09:18.320Z,99.90
2022-09-02T22:11:57.286Z,99.90
2022-09-02T22:14:44.806Z,99.90
2022-09-02T22:17:38.957Z,99.90
2022-09-02T22:20:07.646Z,99.90
2022-09-02T22:22:45.835Z,99.90
2022-09-02T22:25:16.912Z,99.90
2022-09-02T22:27:55.438Z,99.90
2022-09-02T22:30:22.995Z,99.90
2022-09-02T22:32:55.640Z,99.90
2022-09-02T22:35:34.170Z,99.90
2022-09-02T22:38:16.626Z,99.90
2022-09-02T22:40:49.290Z,99.90
2022-09-02T22:43:22.754Z,99.90
2022-09-02T22:46:17.562Z,99.90
2022-09-02T22:49:27.836Z,99.90
2022-09-02T22:52:47.330Z,99.90
2022-09-02T22:55:15.990Z,99.90
2022-09-02T22:58:04.266Z,99.90
2022-09-02T23:00:39.547Z,99.90
2022-09-02T23:03:24.121Z,99.90
2022-09-02T23:06:03.774Z,99.90
2022-09-02T23:08:31.726Z,99.90
2022-09-02T23:11:07.245Z,99.90
2022-09-02T23:13:57.098Z,99.90
2022-09-02T23:16:45.301Z,99.90
2022-09-02T23:19:29.301Z,99.90
2022-09-02T23:22:19.118Z,99.90
2022-09-02T23:24:56.196Z,99.90
2022-09-02T23:27:37.239Z,99.90
2022-09-02T23:30:04.412Z,99.90
2022-09-02T23:33:19.547Z,99.90
2022-09-02T23:35:56.273Z,99.90
2022-09-02T23:39:27.839Z,99.90
2022-09-02T23:42:00.770Z,99.90
2022-09-02T23:44:29.617Z,99.90
2022-09-02T23:47:05.559Z,99.90
2022-09-02T23:49:43.239Z,99.90
2022-09-02T23:52:29.418Z,99.90
2022-09-02T23:55:20.441Z,99.90
2022-09-02T23:58:11.024Z,99.90
